createdAt,value
2023-05-20T00:01:06.204Z,99050.31
2023-05-20T00:03:33.409Z,99055.13
2023-05-20T00:06:00.958Z,99052.72
2023-05-20T00:08:29.542Z,99057.25
2023-05-20T00:10:56.698Z,99059.16
2023-05-20T00:13:23.898Z,99063.69
2023-05-20T00:15:51.147Z,99066.41
2023-05-20T00:18:18.265Z,99054.38
2023-05-20T00:20:45.437Z,99058.28
2023-05-20T00:23:12.554Z,99070.38
2023-05-20T00:25:41.236Z,99064.72
2023-05-20T00:28:08.314Z,99064.09
2023-05-20T00:30:35.417Z,99071.63
2023-05-20T00:33:02.620Z,99075.16
2023-05-20T00:35:29.820Z,99066.84
2023-05-20T00:37:56.987Z,99077.91
2023-05-20T00:40:24.579Z,99069.69
2023-05-20T00:42:53.243Z,99071.63
2023-05-20T00:45:20.388Z,99076.94
2023-05-20T00:47:47.524Z,99085.94
2023-05-20T00:50:14.756Z,99079.16
2023-05-20T00:52:41.894Z,99079.28
2023-05-20T00:55:09.626Z,99087.16
2023-05-20T00:57:36.929Z,99076.22
2023-05-20T01:00:06.177Z,99079.72
2023-05-20T01:02:33.521Z,99076.94
2023-05-20T01:05:01.318Z,99081.53
2023-05-20T01:07:28.778Z,99078.59
2023-05-20T01:09:55.984Z,99084.09
2023-05-20T01:12:26.716Z,99086.69
2023-05-20T01:14:56.748Z,99086.06
2023-05-20T01:17:26.834Z,99077.94
2023-05-20T01:19:55.061Z,99089.41
2023-05-20T01:22:25.718Z,99085.75
2023-05-20T01:24:52.831Z,99097.56
2023-05-20T01:27:20.499Z,99087.84
2023-05-20T01:29:48.398Z,99091.84
2023-05-20T01:32:19.434Z,99086.25
2023-05-20T01:34:47.737Z,99087.66
2023-05-20T01:37:15.991Z,99099.13
2023-05-20T01:39:45.120Z,99091.03
2023-05-20T01:42:13.738Z,99093.91
2023-05-20T01:44:41.037Z,99096.75
2023-05-20T01:47:08.213Z,99100.16
2023-05-20T01:49:35.477Z,99101.56
2023-05-20T01:52:02.640Z,99095.34
2023-05-20T01:54:30.087Z,99093.94
2023-05-20T01:56:58.734Z,99097.03
2023-05-20T01:59:25.931Z,99104.91
2023-05-20T02:01:53.108Z,99111.47
2023-05-20T02:04:20.264Z,99110.25
2023-05-20T02:06:47.349Z,99101.44
2023-05-20T02:09:15.407Z,99104.25
2023-05-20T02:11:42.683Z,99109.16
2023-05-20T02:14:11.242Z,99104.31
2023-05-20T02:16:38.432Z,99102.25
2023-05-20T02:19:05.672Z,99106.25
2023-05-20T02:21:32.891Z,99104.97
2023-05-20T02:24:00.090Z,99111.88
2023-05-20T02:26:27.802Z,99111.16
2023-05-20T02:28:54.937Z,99107.97
2023-05-20T02:31:23.669Z,99116.44
2023-05-20T02:33:50.957Z,99108.50
2023-05-20T02:36:18.256Z,99107.47
2023-05-20T02:38:45.413Z,99101.97
2023-05-20T02:41:12.617Z,99105.28
2023-05-20T02:43:42.465Z,99100.53
2023-05-20T02:46:09.717Z,99103.28
2023-05-20T02:48:38.434Z,99107.53
2023-05-20T02:51:05.793Z,99106.47
2023-05-20T02:53:32.971Z,99110.50
2023-05-20T02:56:00.242Z,99115.69
2023-05-20T02:58:27.506Z,99109.63
2023-05-20T03:00:54.712Z,99116.75
2023-05-20T03:03:21.821Z,99113.34
2023-05-20T03:05:50.412Z,99111.34
2023-05-20T03:08:19.022Z,99116.81
2023-05-20T03:10:46.145Z,99111.94
2023-05-20T03:13:13.314Z,99112.84
2023-05-20T03:15:41.087Z,99116.94
2023-05-20T03:18:08.516Z,99108.66
2023-05-20T03:20:36.935Z,99112.81
2023-05-20T03:23:08.152Z,99105.41
2023-05-20T03:25:37.059Z,99109.38
2023-05-20T03:28:04.587Z,99110.41
2023-05-20T03:30:32.278Z,99113.38
2023-05-20T03:32:59.574Z,99106.25
2023-05-20T03:35:26.825Z,99105.41
2023-05-20T03:37:55.134Z,99106.22
2023-05-20T03:40:25.858Z,99108.69
2023-05-20T03:42:53.561Z,99107.31
2023-05-20T03:45:21.828Z,99113.75
2023-05-20T03:47:58.152Z,99116.25
2023-05-20T03:50:25.687Z,99118.13
2023-05-20T03:52:52.941Z,99112.13
2023-05-20T03:55:22.750Z,99116.03
2023-05-20T03:57:51.908Z,99106.31
2023-05-20T04:00:19.018Z,99108.09
2023-05-20T04:02:46.089Z,99107.06
2023-05-20T04:05:17.002Z,99101.63
2023-05-20T04:07:44.177Z,99108.06
2023-05-20T04:10:13.471Z,99105.56
2023-05-20T04:12:40.590Z,99111.16
2023-05-20T04:15:10.235Z,99108.31
2023-05-20T04:17:46.130Z,99111.63
2023-05-20T04:20:13.393Z,99112.81
2023-05-20T04:22:40.532Z,99112.66
2023-05-20T04:25:08.811Z,99119.72
2023-05-20T04:27:36.261Z,99111.78
2023-05-20T04:30:03.999Z,99115.16
2023-05-20T04:32:35.475Z,99114.91
2023-05-20T04:35:02.714Z,99113.41
2023-05-20T04:37:32.930Z,99114.03
2023-05-20T04:40:00.081Z,99111.59
2023-05-20T04:42:27.962Z,99106.47
2023-05-20T04:44:55.118Z,99109.69
2023-05-20T04:47:22.362Z,99111.16
2023-05-20T04:49:51.105Z,99101.09
2023-05-20T04:52:18.254Z,99104.19
2023-05-20T04:54:46.655Z,99099.88
2023-05-20T04:57:14.459Z,99100.38
2023-05-20T04:59:41.615Z,99099.16
2023-05-20T05:02:09.004Z,99105.75
2023-05-20T05:04:36.167Z,99098.78
2023-05-20T05:07:05.269Z,99093.94
2023-05-20T05:09:34.711Z,99085.56
2023-05-20T05:12:02.518Z,99090.09
2023-05-20T05:14:29.781Z,99094.31
2023-05-20T05:16:56.916Z,99085.09
2023-05-20T05:19:24.783Z,99091.78
2023-05-20T05:21:52.534Z,99086.00
2023-05-20T05:24:21.147Z,99089.72
2023-05-20T05:26:48.723Z,99089.94
2023-05-20T05:29:16.035Z,99093.19
2023-05-20T05:31:43.677Z,99078.47
2023-05-20T05:34:11.309Z,99077.81
2023-05-20T05:36:39.820Z,99074.38
2023-05-20T05:39:07.657Z,99078.38
2023-05-20T05:41:37.679Z,99075.53
2023-05-20T05:44:05.081Z,99079.50
2023-05-20T05:46:32.331Z,99073.38
2023-05-20T05:48:59.611Z,99080.00
2023-05-20T05:51:27.089Z,99075.59
2023-05-20T05:53:54.718Z,99075.50
2023-05-20T05:56:21.826Z,99079.22
2023-05-20T05:58:50.909Z,99066.38
2023-05-20T06:01:18.026Z,99068.22
2023-05-20T06:03:45.372Z,99066.00
2023-05-20T06:06:12.925Z,99062.56
2023-05-20T06:08:40.100Z,99061.06
2023-05-20T06:11:08.761Z,99057.72
2023-05-20T06:13:36.034Z,99062.81
2023-05-20T06:16:04.945Z,99057.16
2023-05-20T06:18:32.038Z,99060.16
2023-05-20T06:21:04.210Z,99056.88
2023-05-20T06:23:31.397Z,99057.00
2023-05-20T06:26:01.298Z,99057.47
2023-05-20T06:28:29.604Z,99054.28
2023-05-20T06:30:57.943Z,99049.34
2023-05-20T06:33:28.462Z,99061.38
2023-05-20T06:36:00.245Z,99045.88
2023-05-20T06:38:28.047Z,99053.22
2023-05-20T06:40:55.697Z,99050.66
2023-05-20T06:43:22.854Z,99057.59
2023-05-20T06:46:00.175Z,99050.63
2023-05-20T06:48:37.157Z,99052.84
2023-05-20T06:51:04.343Z,99041.78
2023-05-20T06:53:31.445Z,99044.50
2023-05-20T06:55:58.644Z,99043.66
2023-05-20T06:58:26.492Z,99035.94
2023-05-20T07:00:56.202Z,99039.00
2023-05-20T07:03:23.773Z,99037.97
2023-05-20T07:05:53.106Z,99034.25
2023-05-20T07:08:21.115Z,99034.72
2023-05-20T07:10:48.699Z,99030.09
2023-05-20T07:13:19.710Z,99040.69
2023-05-20T07:15:46.913Z,99030.34
2023-05-20T07:18:14.909Z,99041.97
2023-05-20T07:20:43.102Z,99029.38
2023-05-20T07:23:18.478Z,99031.00
2023-05-20T07:25:53.362Z,99025.38
2023-05-20T07:28:21.198Z,99027.66
2023-05-20T07:30:48.349Z,99024.88
2023-05-20T07:33:20.744Z,99020.25
2023-05-20T07:35:48.540Z,99011.78
2023-05-20T07:38:15.689Z,99013.97
2023-05-20T07:40:46.253Z,99022.50
2023-05-20T07:43:13.555Z,99017.06
2023-05-20T07:45:41.047Z,99018.53
2023-05-20T07:48:08.401Z,99014.66
2023-05-20T07:50:35.640Z,99007.38
2023-05-20T07:53:02.752Z,99005.13
2023-05-20T07:55:34.409Z,99013.72
2023-05-20T07:58:03.531Z,99008.22
2023-05-20T08:00:33.074Z,99021.44
2023-05-20T08:03:04.565Z,99020.34
2023-05-20T08:05:42.301Z,99021.16
2023-05-20T08:08:09.521Z,99013.09
2023-05-20T08:10:47.947Z,99014.97
2023-05-20T08:13:16.644Z,99019.34
2023-05-20T08:15:43.956Z,99007.31
2023-05-20T08:18:11.584Z,99007.97
2023-05-20T08:20:38.857Z,99010.03
2023-05-20T08:23:06.013Z,99011.03
2023-05-20T08:25:33.428Z,99014.63
2023-05-20T08:28:01.780Z,99006.41
2023-05-20T08:30:30.606Z,98998.03
2023-05-20T08:32:58.002Z,98995.84
2023-05-20T08:35:26.491Z,99000.16
2023-05-20T08:37:54.050Z,98996.78
2023-05-20T08:40:21.904Z,98985.75
2023-05-20T08:42:49.923Z,98995.72
2023-05-20T08:45:18.344Z,98993.97
2023-05-20T08:47:47.629Z,98993.38
2023-05-20T08:50:15.167Z,98997.09
2023-05-20T08:52:43.408Z,98985.00
2023-05-20T08:55:14.817Z,98989.19
2023-05-20T08:57:42.176Z,98990.16
2023-05-20T09:00:09.752Z,98989.00
2023-05-20T09:02:37.273Z,98986.25
2023-05-20T09:05:06.562Z,98991.16
2023-05-20T09:07:33.766Z,98993.25
2023-05-20T09:10:01.021Z,98994.50
2023-05-20T09:12:28.153Z,98989.66
2023-05-20T09:14:55.288Z,98985.44
2023-05-20T09:17:23.326Z,98987.38
2023-05-20T09:19:50.744Z,98987.69
2023-05-20T09:22:23.665Z,98986.38
2023-05-20T09:24:50.968Z,98980.97
2023-05-20T09:27:18.681Z,98994.34
2023-05-20T09:29:47.513Z,98984.59
2023-05-20T09:32:14.667Z,98983.16
2023-05-20T09:34:42.057Z,98979.19
2023-05-20T09:37:09.586Z,98973.91
2023-05-20T09:39:43.222Z,98979.81
2023-05-20T09:42:12.505Z,98977.66
2023-05-20T09:44:40.295Z,98976.97
2023-05-20T09:47:08.522Z,98978.81
2023-05-20T09:49:38.170Z,98977.31
2023-05-20T09:52:06.082Z,98973.94
2023-05-20T09:54:33.789Z,98976.41
2023-05-20T09:57:03.687Z,98977.66
2023-05-20T09:59:31.787Z,98972.97
2023-05-20T10:01:59.022Z,98980.28
2023-05-20T10:04:27.090Z,98975.97
2023-05-20T10:07:06.393Z,98969.03
2023-05-20T10:09:43.009Z,98970.78
2023-05-20T10:12:18.431Z,98970.69
2023-05-20T10:14:51.229Z,98961.00
2023-05-20T10:17:21.645Z,98970.97
2023-05-20T10:19:48.819Z,98968.16
2023-05-20T10:22:16.066Z,98962.94
2023-05-20T10:24:44.216Z,98960.63
2023-05-20T10:27:13.804Z,98962.41
2023-05-20T10:29:45.334Z,98963.28
2023-05-20T10:32:12.613Z,98965.28
2023-05-20T10:34:46.988Z,98957.06
2023-05-20T10:37:21.541Z,98950.91
2023-05-20T10:39:48.682Z,98959.72
2023-05-20T10:42:27.610Z,98957.25
2023-05-20T10:44:54.853Z,98957.50
2023-05-20T10:47:25.990Z,98951.75
2023-05-20T10:49:53.665Z,98959.13
2023-05-20T10:52:20.922Z,98954.38
2023-05-20T10:54:54.658Z,98951.19
2023-05-20T10:57:23.921Z,98958.03
2023-05-20T10:59:51.109Z,98956.03
2023-05-20T11:02:18.518Z,98950.56
2023-05-20T11:04:46.146Z,98945.75
2023-05-20T11:07:13.455Z,98946.69
2023-05-20T11:09:50.160Z,98949.00
2023-05-20T11:12:17.483Z,98948.31
2023-05-20T11:14:48.663Z,98950.81
2023-05-20T11:17:16.140Z,98951.47
2023-05-20T11:19:43.478Z,98943.03
2023-05-20T11:22:10.615Z,98948.53
2023-05-20T11:24:37.948Z,98947.78
2023-05-20T11:27:06.882Z,98949.38
2023-05-20T11:29:34.039Z,98947.75
2023-05-20T11:32:02.690Z,98939.59
2023-05-20T11:34:34.523Z,98949.50
2023-05-20T11:37:01.625Z,98945.66
2023-05-20T11:39:30.364Z,98946.84
2023-05-20T11:41:57.839Z,98945.88
2023-05-20T11:44:25.301Z,98947.84
2023-05-20T11:46:59.209Z,98947.59
2023-05-20T11:49:28.151Z,98937.34
2023-05-20T11:51:55.288Z,98948.78
2023-05-20T11:54:22.779Z,98944.44
2023-05-20T11:56:50.048Z,98951.06
2023-05-20T11:59:17.170Z,98942.28
2023-05-20T12:01:44.459Z,98937.03
2023-05-20T12:04:12.706Z,98943.13
2023-05-20T12:06:41.505Z,98945.94
2023-05-20T12:09:08.906Z,98937.06
2023-05-20T12:11:36.926Z,98939.50
2023-05-20T12:14:04.273Z,98938.47
2023-05-20T12:16:32.377Z,98941.50
2023-05-20T12:18:59.692Z,98943.09
2023-05-20T12:21:27.093Z,98938.66
2023-05-20T12:23:56.333Z,98937.84
2023-05-20T12:26:23.639Z,98933.91
2023-05-20T12:28:50.777Z,98943.16
2023-05-20T12:31:17.999Z,98941.47
2023-05-20T12:33:45.227Z,98944.38
2023-05-20T12:36:12.758Z,98939.81
2023-05-20T12:38:40.037Z,98932.53
2023-05-20T12:41:08.600Z,98945.28
2023-05-20T12:43:36.915Z,98947.00
2023-05-20T12:46:04.656Z,98941.56
2023-05-20T12:48:31.793Z,98945.66
2023-05-20T12:50:59.030Z,98945.72
2023-05-20T12:53:26.164Z,98940.94
2023-05-20T12:55:53.327Z,98938.88
2023-05-20T12:58:22.031Z,98934.72
2023-05-20T13:00:49.270Z,98946.13
2023-05-20T13:03:16.549Z,98943.97
2023-05-20T13:05:43.705Z,98949.19
2023-05-20T13:08:10.843Z,98946.50
2023-05-20T13:10:38.256Z,98934.31
2023-05-20T13:13:05.476Z,98937.72
2023-05-20T13:15:34.139Z,98942.75
2023-05-20T13:18:01.706Z,98943.47
2023-05-20T13:20:29.501Z,98936.53
2023-05-20T13:22:56.761Z,98935.00
2023-05-20T13:25:23.925Z,98938.34
2023-05-20T13:27:51.192Z,98931.69
2023-05-20T13:30:18.802Z,98929.97
2023-05-20T13:32:47.429Z,98936.22
2023-05-20T13:35:14.582Z,98928.97
2023-05-20T13:37:41.915Z,98936.19
2023-05-20T13:40:09.987Z,98933.34
2023-05-20T13:42:37.288Z,98938.97
2023-05-20T13:45:04.863Z,98933.34
2023-05-20T13:47:32.154Z,98941.97
2023-05-20T13:50:02.874Z,98940.66
2023-05-20T13:52:30.480Z,98940.06
2023-05-20T13:54:57.571Z,98942.91
2023-05-20T13:57:25.169Z,98938.69
2023-05-20T13:59:52.316Z,98956.13
2023-05-20T14:02:19.484Z,98940.41
2023-05-20T14:04:46.609Z,98939.81
2023-05-20T14:07:15.124Z,98944.19
2023-05-20T14:09:42.315Z,98951.34
2023-05-20T14:12:09.430Z,98944.59
2023-05-20T14:14:36.635Z,98947.06
2023-05-20T14:17:03.956Z,98948.63
2023-05-20T14:19:31.292Z,98955.53
2023-05-20T14:21:58.422Z,98944.19
2023-05-20T14:24:27.030Z,98945.56
2023-05-20T14:26:54.418Z,98942.28
2023-05-20T14:29:21.657Z,98955.69
2023-05-20T14:31:48.829Z,98954.00
2023-05-20T14:34:16.064Z,98952.38
2023-05-20T14:36:43.338Z,98951.72
2023-05-20T14:39:10.520Z,98946.53
2023-05-20T14:41:39.371Z,98949.38
2023-05-20T14:44:06.505Z,98950.81
2023-05-20T14:46:33.700Z,98952.53
2023-05-20T14:49:00.973Z,98949.84
2023-05-20T14:51:28.445Z,98954.84
2023-05-20T14:53:55.548Z,98949.44
2023-05-20T14:56:23.144Z,98956.75
2023-05-20T14:58:51.743Z,98955.88
2023-05-20T15:01:18.934Z,98957.97
2023-05-20T15:03:46.660Z,98956.69
2023-05-20T15:06:13.824Z,98957.13
2023-05-20T15:08:40.933Z,98956.91
2023-05-20T15:11:08.125Z,98964.63
2023-05-20T15:13:35.258Z,98963.16
2023-05-20T15:16:04.069Z,98962.13
2023-05-20T15:18:31.262Z,98967.13
2023-05-20T15:20:58.469Z,98972.50
2023-05-20T15:23:25.559Z,98971.25
2023-05-20T15:25:52.859Z,98972.72
2023-05-20T15:28:20.050Z,98971.63
2023-05-20T15:30:51.720Z,98975.00
2023-05-20T15:33:20.471Z,98968.41
2023-05-20T15:35:47.902Z,98968.75
2023-05-20T15:38:15.355Z,98971.31
2023-05-20T15:40:42.573Z,98969.34
2023-05-20T15:43:09.752Z,98971.13
2023-05-20T15:45:36.995Z,98970.63
2023-05-20T15:48:04.364Z,98973.44
2023-05-20T15:50:33.080Z,98974.06
2023-05-20T15:53:00.447Z,98972.78
2023-05-20T15:55:27.777Z,98973.41
2023-05-20T15:57:54.910Z,98971.25
2023-05-20T16:00:22.360Z,98977.50
2023-05-20T16:02:49.588Z,98979.84
2023-05-20T16:05:17.241Z,98975.28
2023-05-20T16:07:46.427Z,98978.53
2023-05-20T16:10:13.596Z,98979.63
2023-05-20T16:12:41.314Z,98972.19
2023-05-20T16:15:08.908Z,98980.16
2023-05-20T16:17:36.085Z,98989.22
2023-05-20T16:20:03.334Z,98984.34
2023-05-20T16:22:30.432Z,98985.84
2023-05-20T16:24:59.101Z,98986.72
2023-05-20T16:27:26.199Z,98989.72
2023-05-20T16:29:53.404Z,98985.91
2023-05-20T16:32:20.484Z,98985.69
2023-05-20T16:34:47.693Z,98989.34
2023-05-20T16:37:14.801Z,98983.78
2023-05-20T16:39:42.017Z,98992.34
2023-05-20T16:42:10.613Z,98990.97
2023-05-20T16:44:38.064Z,98994.19
2023-05-20T16:47:05.373Z,98990.28
2023-05-20T16:49:32.562Z,98986.66
2023-05-20T16:52:00.471Z,98993.91
2023-05-20T16:54:27.654Z,98978.97
2023-05-20T16:56:55.801Z,98983.69
2023-05-20T16:59:25.122Z,98986.06
2023-05-20T17:01:52.881Z,98995.63
2023-05-20T17:04:20.051Z,98989.34
2023-05-20T17:06:47.198Z,98993.72
2023-05-20T17:09:14.324Z,98992.06
2023-05-20T17:11:41.666Z,98987.41
2023-05-20T17:14:08.815Z,98990.06
2023-05-20T17:16:37.464Z,98994.31
2023-05-20T17:19:04.651Z,99000.09
2023-05-20T17:21:31.778Z,98998.88
2023-05-20T17:23:58.891Z,99000.53
2023-05-20T17:26:26.158Z,99004.09
2023-05-20T17:28:53.753Z,98994.50
2023-05-20T17:31:20.978Z,98999.72
2023-05-20T17:33:49.664Z,98993.00
2023-05-20T17:36:16.990Z,98993.59
2023-05-20T17:38:44.084Z,98998.38
2023-05-20T17:41:11.243Z,98993.41
2023-05-20T17:43:38.367Z,98990.94
2023-05-20T17:46:05.561Z,98995.22
2023-05-20T17:48:32.864Z,98995.88
2023-05-20T17:51:02.561Z,99000.91
2023-05-20T17:53:29.663Z,99003.31
2023-05-20T17:55:56.882Z,98995.69
2023-05-20T17:58:24.057Z,98984.84
2023-05-20T18:00:51.277Z,98989.41
2023-05-20T18:03:18.441Z,98997.75
2023-05-20T18:05:45.756Z,98990.59
2023-05-20T18:08:14.693Z,98998.13
2023-05-20T18:10:41.793Z,98990.22
2023-05-20T18:13:09.689Z,99002.91
2023-05-20T18:15:37.457Z,98998.66
2023-05-20T18:18:05.576Z,98999.72
2023-05-20T18:20:33.502Z,98999.81
2023-05-20T18:23:01.230Z,99000.06
2023-05-20T18:25:29.768Z,98998.00
2023-05-20T18:27:56.880Z,99003.56
2023-05-20T18:30:23.979Z,99003.41
2023-05-20T18:32:51.184Z,99005.84
2023-05-20T18:35:18.647Z,99003.56
2023-05-20T18:37:45.752Z,99000.34
2023-05-20T18:40:13.237Z,98996.94
2023-05-20T18:42:41.888Z,99002.13
2023-05-20T18:45:09.412Z,99004.81
2023-05-20T18:47:36.782Z,99010.59
2023-05-20T18:50:04.134Z,99005.75
2023-05-20T18:52:31.323Z,99006.44
2023-05-20T18:54:58.449Z,99005.63
2023-05-20T18:57:25.762Z,99009.38
2023-05-20T18:59:54.364Z,99000.63
2023-05-20T19:02:21.556Z,98993.69
2023-05-20T19:04:48.773Z,98996.38
2023-05-20T19:07:15.960Z,98995.34
2023-05-20T19:09:43.185Z,98995.13
2023-05-20T19:12:10.319Z,98993.72
2023-05-20T19:14:37.415Z,98994.31
2023-05-20T19:17:06.156Z,98996.16
2023-05-20T19:19:33.565Z,98990.81
2023-05-20T19:22:00.706Z,98993.72
2023-05-20T19:24:28.264Z,98997.00
2023-05-20T19:26:55.405Z,98988.91
2023-05-20T19:29:22.521Z,98995.41
2023-05-20T19:31:49.796Z,98993.31
2023-05-20T19:34:18.552Z,98994.41
2023-05-20T19:36:46.365Z,98993.50
2023-05-20T19:39:13.741Z,98990.66
2023-05-20T19:41:40.902Z,98997.00
2023-05-20T19:44:09.027Z,98999.31
2023-05-20T19:46:36.968Z,98996.63
2023-05-20T19:49:04.321Z,98992.44
2023-05-20T19:51:32.935Z,98997.56
2023-05-20T19:54:00.115Z,98994.44
2023-05-20T19:56:27.357Z,98991.63
2023-05-20T19:58:55.297Z,99002.28
2023-05-20T20:01:22.446Z,99003.94
2023-05-20T20:03:49.573Z,98996.59
2023-05-20T20:06:16.790Z,98997.63
2023-05-20T20:08:45.492Z,98999.59
2023-05-20T20:11:13.342Z,98991.63
2023-05-20T20:13:40.649Z,99000.38
2023-05-20T20:16:08.590Z,98998.78
2023-05-20T20:18:35.740Z,99001.03
2023-05-20T20:21:02.809Z,98998.47
2023-05-20T20:23:30.915Z,98998.72
2023-05-20T20:25:59.506Z,98991.41
2023-05-20T20:28:26.668Z,98994.84
2023-05-20T20:30:53.965Z,98993.72
2023-05-20T20:33:21.513Z,99001.03
2023-05-20T20:35:48.730Z,99003.81
2023-05-20T20:38:15.848Z,99003.41
2023-05-20T20:40:43.024Z,99003.41
2023-05-20T20:43:12.095Z,99006.78
2023-05-20T20:45:39.213Z,99006.25
2023-05-20T20:48:06.353Z,99001.56
2023-05-20T20:50:33.646Z,99007.94
2023-05-20T20:53:01.817Z,99007.81
2023-05-20T20:55:29.411Z,98995.56
2023-05-20T20:57:56.759Z,99004.28
2023-05-20T21:00:26.113Z,99008.91
2023-05-20T21:02:53.532Z,99012.59
2023-05-20T21:05:20.781Z,99011.75
2023-05-20T21:07:47.893Z,99013.34
2023-05-20T21:10:15.494Z,99010.13
2023-05-20T21:12:42.771Z,99012.88
2023-05-20T21:15:10.555Z,99014.78
2023-05-20T21:17:39.699Z,99017.22
2023-05-20T21:20:07.536Z,99019.88
2023-05-20T21:22:34.747Z,99020.94
2023-05-20T21:25:02.596Z,99020.31
2023-05-20T21:27:29.721Z,99018.44
2023-05-20T21:29:56.832Z,99020.75
2023-05-20T21:32:24.017Z,99026.53
2023-05-20T21:34:52.557Z,99018.81
2023-05-20T21:37:19.713Z,99021.13
2023-05-20T21:39:47.019Z,99018.25
2023-05-20T21:42:14.278Z,99025.31
2023-05-20T21:44:41.489Z,99016.75
2023-05-20T21:47:08.629Z,99019.28
2023-05-20T21:49:35.770Z,99018.75
2023-05-20T21:52:04.528Z,99027.50
2023-05-20T21:54:31.830Z,99033.31
2023-05-20T21:56:59.077Z,99016.00
2023-05-20T21:59:26.197Z,99029.38
2023-05-20T22:01:53.335Z,99016.84
2023-05-20T22:04:20.476Z,99034.78
2023-05-20T22:06:47.584Z,99025.19
2023-05-20T22:09:16.660Z,99028.88
2023-05-20T22:11:43.739Z,99031.38
2023-05-20T22:14:11.038Z,99027.22
2023-05-20T22:16:38.708Z,99033.84
2023-05-20T22:19:05.914Z,99027.97
2023-05-20T22:21:39.644Z,99035.78
2023-05-20T22:24:13.580Z,99029.66
2023-05-20T22:26:42.157Z,99039.44
2023-05-20T22:29:09.300Z,99028.81
2023-05-20T22:31:36.485Z,99030.50
2023-05-20T22:34:03.634Z,99031.25
2023-05-20T22:36:31.070Z,99032.81
2023-05-20T22:38:58.294Z,99031.75
2023-05-20T22:41:25.436Z,99037.50
2023-05-20T22:43:54.489Z,99030.88
2023-05-20T22:46:21.626Z,99033.31
2023-05-20T22:48:48.904Z,99036.16
2023-05-20T22:51:16.054Z,99033.13
2023-05-20T22:53:43.405Z,99033.44
2023-05-20T22:56:10.505Z,99033.56
2023-05-20T22:58:37.610Z,99028.50
2023-05-20T23:01:06.377Z,99039.50
2023-05-20T23:03:33.538Z,99035.50
2023-05-20T23:06:00.750Z,99033.69
2023-05-20T23:08:27.997Z,99040.47
2023-05-20T23:10:55.165Z,99039.44
2023-05-20T23:13:22.261Z,99035.41
2023-05-20T23:15:49.964Z,99043.63
2023-05-20T23:18:18.839Z,99049.25
2023-05-20T23:20:46.098Z,99048.34
2023-05-20T23:23:13.230Z,99048.47
2023-05-20T23:25:40.439Z,99043.91
2023-05-20T23:28:07.616Z,99045.66
2023-05-20T23:30:34.994Z,99044.09
2023-05-20T23:33:02.300Z,99041.00
2023-05-20T23:35:31.011Z,99039.41
2023-05-20T23:37:58.214Z,99038.75
2023-05-20T23:40:25.289Z,99042.69
2023-05-20T23:42:52.745Z,99041.38
2023-05-20T23:45:19.887Z,99043.13
2023-05-20T23:47:47.015Z,99041.28
2023-05-20T23:50:14.225Z,99049.78
2023-05-20T23:52:42.821Z,99038.50
2023-05-20T23:55:10.275Z,99047.53
2023-05-20T23:57:37.587Z,99043.59
